sensor_id;sensor_type;location;lat;lon;timestamp;P1;durP1;ratioP1;P2;durP2;ratioP2
140;SDS011;65;48.778;9.160;2023-03-26T00:00:09;6.60;;;1.80;;
140;SDS011;65;48.778;9.160;2023-03-26T00:02:57;5.43;;;1.83;;
140;SDS011;65;48.778;9.160;2023-03-26T00:05:43;5.15;;;1.90;;
140;SDS011;65;48.778;9.160;2023-03-26T00:08:36;4.47;;;1.85;;
140;SDS011;65;48.778;9.160;2023-03-26T00:11:23;4.97;;;1.60;;
140;SDS011;65;48.778;9.160;2023-03-26T00:14:11;2.50;;;1.58;;
140;SDS011;65;48.778;9.160;2023-03-26T00:16:58;5.15;;;1.70;;
140;SDS011;65;48.778;9.160;2023-03-26T00:19:43;4.95;;;2.05;;
140;SDS011;65;48.778;9.160;2023-03-26T00:22:29;9.43;;;1.90;;
140;SDS011;65;48.778;9.160;2023-03-26T00:25:15;4.97;;;1.70;;
140;SDS011;65;48.778;9.160;2023-03-26T00:28:01;4.18;;;1.50;;
140;SDS011;65;48.778;9.160;2023-03-26T00:30:48;3.53;;;1.50;;
140;SDS011;65;48.778;9.160;2023-03-26T00:33:35;5.10;;;1.63;;
140;SDS011;65;48.778;9.160;2023-03-26T00:36:23;4.03;;;1.92;;
140;SDS011;65;48.778;9.160;2023-03-26T00:39:11;4.45;;;1.60;;
140;SDS011;65;48.778;9.160;2023-03-26T00:41:57;5.22;;;1.90;;
140;SDS011;65;48.778;9.160;2023-03-26T00:44:42;4.63;;;1.90;;
140;SDS011;65;48.778;9.160;2023-03-26T00:47:28;5.18;;;1.90;;
140;SDS011;65;48.778;9.160;2023-03-26T00:50:15;7.30;;;2.10;;
140;SDS011;65;48.778;9.160;2023-03-26T00:53:00;6.28;;;1.80;;
140;SDS011;65;48.778;9.160;2023-03-26T00:55:47;7.82;;;1.88;;
140;SDS011;65;48.778;9.160;2023-03-26T00:58:33;7.40;;;1.73;;
140;SDS011;65;48.778;9.160;2023-03-26T01:01:23;7.43;;;1.80;;
140;SDS011;65;48.778;9.160;2023-03-26T01:04:29;6.68;;;1.85;;
140;SDS011;65;48.778;9.160;2023-03-26T01:07:18;5.05;;;1.65;;
140;SDS011;65;48.778;9.160;2023-03-26T01:10:06;9.98;;;2.00;;
140;SDS011;65;48.778;9.160;2023-03-26T01:12:52;7.18;;;1.55;;
140;SDS011;65;48.778;9.160;2023-03-26T01:15:37;5.97;;;1.42;;
140;SDS011;65;48.778;9.160;2023-03-26T01:18:23;7.55;;;1.85;;
140;SDS011;65;48.778;9.160;2023-03-26T01:21:10;7.55;;;2.05;;
140;SDS011;65;48.778;9.160;2023-03-26T01:38:57;6.53;;;2.15;;
140;SDS011;65;48.778;9.160;2023-03-26T01:41:51;4.28;;;1.60;;
140;SDS011;65;48.778;9.160;2023-03-26T01:47:39;6.47;;;1.92;;
140;SDS011;65;48.778;9.160;2023-03-26T01:50:27;6.18;;;1.98;;
140;SDS011;65;48.778;9.160;2023-03-26T01:53:12;8.45;;;2.22;;
140;SDS011;65;48.778;9.160;2023-03-26T02:05:40;5.97;;;1.92;;
140;SDS011;65;48.778;9.160;2023-03-26T02:08:37;6.53;;;2.00;;
140;SDS011;65;48.778;9.160;2023-03-26T02:11:27;5.95;;;1.38;;
140;SDS011;65;48.778;9.160;2023-03-26T02:14:16;4.97;;;1.90;;
140;SDS011;65;48.778;9.160;2023-03-26T02:17:02;5.65;;;1.65;;
140;SDS011;65;48.778;9.160;2023-03-26T02:19:48;5.13;;;1.73;;
140;SDS011;65;48.778;9.160;2023-03-26T02:22:34;6.65;;;1.80;;
140;SDS011;65;48.778;9.160;2023-03-26T02:25:25;5.15;;;2.22;;
140;SDS011;65;48.778;9.160;2023-03-26T02:28:10;10.70;;;2.50;;
140;SDS011;65;48.778;9.160;2023-03-26T02:30:56;6.43;;;1.67;;
140;SDS011;65;48.778;9.160;2023-03-26T02:33:46;6.47;;;1.90;;
140;SDS011;65;48.778;9.160;2023-03-26T02:36:33;4.82;;;1.42;;
140;SDS011;65;48.778;9.160;2023-03-26T02:39:20;5.28;;;1.58;;
140;SDS011;65;48.778;9.160;2023-03-26T02:42:21;5.78;;;1.70;;
140;SDS011;65;48.778;9.160;2023-03-26T02:45:08;9.13;;;1.90;;
140;SDS011;65;48.778;9.160;2023-03-26T02:47:54;10.27;;;1.95;;
140;SDS011;65;48.778;9.160;2023-03-26T02:50:40;5.10;;;1.60;;
140;SDS011;65;48.778;9.160;2023-03-26T02:53:26;7.35;;;1.60;;
140;SDS011;65;48.778;9.160;2023-03-26T02:56:16;5.45;;;1.80;;
140;SDS011;65;48.778;9.160;2023-03-26T02:59:02;6.10;;;1.95;;
140;SDS011;65;48.778;9.160;2023-03-26T03:01:47;4.95;;;1.67;;
140;SDS011;65;48.778;9.160;2023-03-26T03:04:33;3.92;;;1.70;;
140;SDS011;65;48.778;9.160;2023-03-26T03:07:19;5.63;;;1.58;;
140;SDS011;65;48.778;9.160;2023-03-26T03:10:07;5.65;;;2.00;;
140;SDS011;65;48.778;9.160;2023-03-26T03:12:54;5.55;;;1.60;;
140;SDS011;65;48.778;9.160;2023-03-26T03:15:39;6.80;;;1.40;;
140;SDS011;65;48.778;9.160;2023-03-26T03:18:25;5.93;;;1.65;;
140;SDS011;65;48.778;9.160;2023-03-26T03:21:11;7.13;;;1.88;;
140;SDS011;65;48.778;9.160;2023-03-26T03:23:57;6.15;;;1.73;;
140;SDS011;65;48.778;9.160;2023-03-26T03:26:42;6.35;;;1.80;;
140;SDS011;65;48.778;9.160;2023-03-26T03:29:30;8.73;;;2.22;;
140;SDS011;65;48.778;9.160;2023-03-26T03:32:15;6.03;;;1.70;;
140;SDS011;65;48.778;9.160;2023-03-26T03:35:01;6.15;;;1.70;;
140;SDS011;65;48.778;9.160;2023-03-26T03:37:47;6.10;;;1.88;;
140;SDS011;65;48.778;9.160;2023-03-26T03:40:32;8.77;;;2.00;;
140;SDS011;65;48.778;9.160;2023-03-26T03:43:18;7.10;;;1.60;;
140;SDS011;65;48.778;9.160;2023-03-26T03:46:04;6.00;;;1.58;;
140;SDS011;65;48.778;9.160;2023-03-26T03:48:50;9.13;;;2.00;;
140;SDS011;65;48.778;9.160;2023-03-26T03:51:35;6.13;;;1.63;;
140;SDS011;65;48.778;9.160;2023-03-26T03:54:21;3.28;;;1.40;;
140;SDS011;65;48.778;9.160;2023-03-26T03:57:07;5.03;;;1.50;;
140;SDS011;65;48.778;9.160;2023-03-26T03:59:53;5.45;;;1.80;;
140;SDS011;65;48.778;9.160;2023-03-26T04:02:42;4.18;;;1.67;;
140;SDS011;65;48.778;9.160;2023-03-26T04:05:30;8.57;;;2.08;;
140;SDS011;65;48.778;9.160;2023-03-26T04:08:17;6.18;;;1.65;;
140;SDS011;65;48.778;9.160;2023-03-26T04:11:03;7.95;;;1.80;;
140;SDS011;65;48.778;9.160;2023-03-26T04:13:49;8.25;;;1.60;;
140;SDS011;65;48.778;9.160;2023-03-26T04:16:35;7.55;;;1.80;;
140;SDS011;65;48.778;9.160;2023-03-26T04:19:20;7.38;;;2.38;;
140;SDS011;65;48.778;9.160;2023-03-26T04:22:06;6.97;;;1.95;;
140;SDS011;65;48.778;9.160;2023-03-26T04:24:52;6.68;;;1.60;;
140;SDS011;65;48.778;9.160;2023-03-26T04:27:38;4.93;;;1.90;;
140;SDS011;65;48.778;9.160;2023-03-26T04:30:26;6.28;;;1.90;;
140;SDS011;65;48.778;9.160;2023-03-26T04:33:12;4.60;;;1.67;;
140;SDS011;65;48.778;9.160;2023-03-26T04:35:59;8.13;;;2.00;;
140;SDS011;65;48.778;9.160;2023-03-26T04:38:47;7.50;;;1.85;;
140;SDS011;65;48.778;9.160;2023-03-26T04:41:36;10.68;;;2.10;;
140;SDS011;65;48.778;9.160;2023-03-26T04:44:22;10.88;;;2.08;;
140;SDS011;65;48.778;9.160;2023-03-26T04:47:08;12.25;;;2.15;;
140;SDS011;65;48.778;9.160;2023-03-26T04:49:54;4.43;;;1.40;;
140;SDS011;65;48.778;9.160;2023-03-26T04:52:41;6.43;;;1.90;;
140;SDS011;65;48.778;9.160;2023-03-26T04:55:32;7.38;;;1.48;;
140;SDS011;65;48.778;9.160;2023-03-26T04:58:25;6.95;;;2.17;;
140;SDS011;65;48.778;9.160;2023-03-26T05:01:17;8.25;;;1.85;;
140;SDS011;65;48.778;9.160;2023-03-26T05:04:03;7.05;;;2.03;;
140;SDS011;65;48.778;9.160;2023-03-26T05:06:48;8.25;;;1.80;;
140;SDS011;65;48.778;9.160;2023-03-26T05:09:34;4.93;;;1.60;;
140;SDS011;65;48.778;9.160;2023-03-26T05:12:20;8.30;;;2.00;;
140;SDS011;65;48.778;9.160;2023-03-26T05:15:06;8.35;;;1.83;;
140;SDS011;65;48.778;9.160;2023-03-26T05:17:54;8.80;;;1.83;;
140;SDS011;65;48.778;9.160;2023-03-26T05:20:40;7.63;;;1.80;;
140;SDS011;65;48.778;9.160;2023-03-26T05:23:27;7.85;;;1.67;;
140;SDS011;65;48.778;9.160;2023-03-26T05:26:13;4.90;;;1.60;;
140;SDS011;65;48.778;9.160;2023-03-26T05:28:59;7.65;;;1.73;;
140;SDS011;65;48.778;9.160;2023-03-26T05:31:47;7.53;;;1.80;;
140;SDS011;65;48.778;9.160;2023-03-26T05:34:33;6.40;;;1.65;;
140;SDS011;65;48.778;9.160;2023-03-26T05:37:18;5.30;;;1.90;;
140;SDS011;65;48.778;9.160;2023-03-26T05:40:08;9.15;;;1.85;;
140;SDS011;65;48.778;9.160;2023-03-26T05:42:56;8.23;;;2.42;;
140;SDS011;65;48.778;9.160;2023-03-26T05:45:41;6.78;;;1.90;;
140;SDS011;65;48.778;9.160;2023-03-26T05:48:27;6.97;;;1.67;;
140;SDS011;65;48.778;9.160;2023-03-26T05:51:13;6.93;;;1.73;;
140;SDS011;65;48.778;9.160;2023-03-26T05:53:59;7.00;;;1.92;;
140;SDS011;65;48.778;9.160;2023-03-26T05:56:45;6.60;;;2.15;;
140;SDS011;65;48.778;9.160;2023-03-26T05:59:31;6.88;;;2.13;;
140;SDS011;65;48.778;9.160;2023-03-26T06:02:17;10.32;;;1.83;;
140;SDS011;65;48.778;9.160;2023-03-26T06:05:03;5.95;;;1.80;;
140;SDS011;65;48.778;9.160;2023-03-26T06:07:49;7.82;;;1.90;;
140;SDS011;65;48.778;9.160;2023-03-26T06:10:38;7.07;;;1.80;;
140;SDS011;65;48.778;9.160;2023-03-26T06:13:24;7.43;;;1.73;;
140;SDS011;65;48.778;9.160;2023-03-26T06:16:11;4.85;;;2.00;;
140;SDS011;65;48.778;9.160;2023-03-26T06:18:57;6.18;;;1.70;;
140;SDS011;65;48.778;9.160;2023-03-26T06:21:43;6.65;;;1.85;;
140;SDS011;65;48.778;9.160;2023-03-26T06:24:29;5.53;;;1.80;;
140;SDS011;65;48.778;9.160;2023-03-26T06:27:14;6.68;;;1.88;;
140;SDS011;65;48.778;9.160;2023-03-26T06:30:00;6.70;;;1.92;;
140;SDS011;65;48.778;9.160;2023-03-26T06:32:47;4.80;;;1.67;;
140;SDS011;65;48.778;9.160;2023-03-26T06:35:32;6.18;;;2.00;;
140;SDS011;65;48.778;9.160;2023-03-26T06:38:18;6.07;;;2.25;;
140;SDS011;65;48.778;9.160;2023-03-26T06:41:05;9.23;;;1.90;;
140;SDS011;65;48.778;9.160;2023-03-26T06:43:51;7.82;;;1.98;;
140;SDS011;65;48.778;9.160;2023-03-26T06:46:37;5.78;;;1.98;;
140;SDS011;65;48.778;9.160;2023-03-26T06:49:22;7.07;;;1.67;;
140;SDS011;65;48.778;9.160;2023-03-26T06:52:08;10.13;;;2.33;;
140;SDS011;65;48.778;9.160;2023-03-26T06:54:54;7.50;;;1.83;;
140;SDS011;65;48.778;9.160;2023-03-26T06:57:39;11.55;;;2.30;;
140;SDS011;65;48.778;9.160;2023-03-26T07:00:25;6.95;;;1.83;;
140;SDS011;65;48.778;9.160;2023-03-26T07:03:11;6.88;;;1.85;;
140;SDS011;65;48.778;9.160;2023-03-26T07:05:57;7.88;;;2.00;;
140;SDS011;65;48.778;9.160;2023-03-26T07:08:42;7.30;;;1.77;;
140;SDS011;65;48.778;9.160;2023-03-26T07:11:31;7.50;;;2.03;;
140;SDS011;65;48.778;9.160;2023-03-26T07:14:17;6.93;;;1.70;;
140;SDS011;65;48.778;9.160;2023-03-26T07:17:02;6.60;;;1.98;;
140;SDS011;65;48.778;9.160;2023-03-26T07:19:48;9.60;;;2.97;;
140;SDS011;65;48.778;9.160;2023-03-26T07:22:36;5.97;;;2.15;;
140;SDS011;65;48.778;9.160;2023-03-26T07:25:22;6.90;;;2.10;;
140;SDS011;65;48.778;9.160;2023-03-26T07:31:36;7.13;;;2.05;;
140;SDS011;65;48.778;9.160;2023-03-26T07:37:43;5.07;;;1.60;;
140;SDS011;65;48.778;9.160;2023-03-26T07:46:29;9.45;;;2.58;;
140;SDS011;65;48.778;9.160;2023-03-26T07:49:16;10.32;;;2.33;;
140;SDS011;65;48.778;9.160;2023-03-26T07:52:04;9.90;;;2.15;;
140;SDS011;65;48.778;9.160;2023-03-26T07:54:50;6.00;;;2.35;;
140;SDS011;65;48.778;9.160;2023-03-26T08:00:39;7.35;;;2.47;;
140;SDS011;65;48.778;9.160;2023-03-26T08:03:30;4.82;;;2.13;;
140;SDS011;65;48.778;9.160;2023-03-26T08:06:36;12.38;;;2.35;;
140;SDS011;65;48.778;9.160;2023-03-26T08:15:32;7.93;;;2.45;;
140;SDS011;65;48.778;9.160;2023-03-26T08:21:29;8.75;;;2.10;;
140;SDS011;65;48.778;9.160;2023-03-26T08:31:10;7.65;;;2.35;;
140;SDS011;65;48.778;9.160;2023-03-26T08:33:58;12.10;;;2.60;;
140;SDS011;65;48.778;9.160;2023-03-26T08:36:44;10.13;;;2.80;;
140;SDS011;65;48.778;9.160;2023-03-26T08:39:30;11.75;;;2.80;;
140;SDS011;65;48.778;9.160;2023-03-26T08:45:46;12.95;;;3.30;;
140;SDS011;65;48.778;9.160;2023-03-26T08:55:32;7.85;;;2.50;;
140;SDS011;65;48.778;9.160;2023-03-26T09:13:50;8.15;;;2.45;;
140;SDS011;65;48.778;9.160;2023-03-26T09:47:32;3.30;;;1.40;;
140;SDS011;65;48.778;9.160;2023-03-26T09:56:51;5.05;;;1.50;;
140;SDS011;65;48.778;9.160;2023-03-26T10:00:04;4.57;;;1.45;;
140;SDS011;65;48.778;9.160;2023-03-26T10:40:08;5.32;;;1.42;;
140;SDS011;65;48.778;9.160;2023-03-26T10:43:09;5.43;;;1.40;;
140;SDS011;65;48.778;9.160;2023-03-26T10:46:54;2.63;;;1.20;;
140;SDS011;65;48.778;9.160;2023-03-26T10:49:40;1.13;;;0.90;;
140;SDS011;65;48.778;9.160;2023-03-26T10:55:28;1.88;;;0.85;;
140;SDS011;65;48.778;9.160;2023-03-26T11:01:11;5.25;;;1.27;;
140;SDS011;65;48.778;9.160;2023-03-26T11:07:48;1.90;;;1.00;;
140;SDS011;65;48.778;9.160;2023-03-26T11:14:02;2.60;;;0.95;;
140;SDS011;65;48.778;9.160;2023-03-26T11:16:57;1.75;;;0.80;;
140;SDS011;65;48.778;9.160;2023-03-26T11:26:32;2.40;;;0.88;;
140;SDS011;65;48.778;9.160;2023-03-26T11:32:44;1.83;;;0.80;;
140;SDS011;65;48.778;9.160;2023-03-26T11:35:34;1.50;;;0.90;;
140;SDS011;65;48.778;9.160;2023-03-26T11:38:43;2.17;;;0.90;;
140;SDS011;65;48.778;9.160;2023-03-26T11:41:32;3.38;;;1.10;;
140;SDS011;65;48.778;9.160;2023-03-26T11:44:19;0.85;;;0.73;;
140;SDS011;65;48.778;9.160;2023-03-26T11:47:09;1.50;;;0.93;;
140;SDS011;65;48.778;9.160;2023-03-26T11:49:59;1.80;;;0.77;;
140;SDS011;65;48.778;9.160;2023-03-26T11:52:48;2.35;;;1.00;;
140;SDS011;65;48.778;9.160;2023-03-26T11:55:34;2.47;;;1.10;;
140;SDS011;65;48.778;9.160;2023-03-26T11:58:21;1.73;;;0.85;;
140;SDS011;65;48.778;9.160;2023-03-26T12:01:27;2.53;;;1.20;;
140;SDS011;65;48.778;9.160;2023-03-26T12:04:33;1.85;;;0.90;;
140;SDS011;65;48.778;9.160;2023-03-26T12:07:32;2.55;;;1.02;;
140;SDS011;65;48.778;9.160;2023-03-26T12:10:30;1.88;;;0.80;;
140;SDS011;65;48.778;9.160;2023-03-26T12:13:28;3.08;;;1.10;;
140;SDS011;65;48.778;9.160;2023-03-26T12:16:23;1.73;;;0.88;;
140;SDS011;65;48.778;9.160;2023-03-26T12:19:18;1.45;;;0.98;;
140;SDS011;65;48.778;9.160;2023-03-26T12:25:20;1.98;;;1.00;;
140;SDS011;65;48.778;9.160;2023-03-26T12:31:00;3.08;;;1.20;;
140;SDS011;65;48.778;9.160;2023-03-26T12:34:05;2.50;;;0.90;;
140;SDS011;65;48.778;9.160;2023-03-26T12:36:58;2.28;;;1.00;;
140;SDS011;65;48.778;9.160;2023-03-26T12:39:45;2.55;;;1.00;;
140;SDS011;65;48.778;9.160;2023-03-26T12:42:31;3.85;;;1.33;;
140;SDS011;65;48.778;9.160;2023-03-26T12:45:21;5.13;;;1.73;;
140;SDS011;65;48.778;9.160;2023-03-26T12:48:13;6.30;;;1.45;;
140;SDS011;65;48.778;9.160;2023-03-26T13:00:14;2.50;;;1.15;;
140;SDS011;65;48.778;9.160;2023-03-26T13:03:21;2.75;;;1.05;;
140;SDS011;65;48.778;9.160;2023-03-26T13:09:34;3.50;;;1.30;;
140;SDS011;65;48.778;9.160;2023-03-26T13:15:21;2.67;;;1.05;;
140;SDS011;65;48.778;9.160;2023-03-26T13:18:26;3.38;;;1.10;;
140;SDS011;65;48.778;9.160;2023-03-26T13:21:30;3.60;;;1.20;;
140;SDS011;65;48.778;9.160;2023-03-26T13:27:32;4.22;;;1.50;;
140;SDS011;65;48.778;9.160;2023-03-26T13:33:31;3.28;;;1.10;;
140;SDS011;65;48.778;9.160;2023-03-26T13:36:30;4.13;;;1.10;;
140;SDS011;65;48.778;9.160;2023-03-26T13:39:36;3.22;;;1.10;;
140;SDS011;65;48.778;9.160;2023-03-26T13:42:36;4.18;;;1.40;;
140;SDS011;65;48.778;9.160;2023-03-26T13:48:32;2.92;;;1.40;;
140;SDS011;65;48.778;9.160;2023-03-26T13:54:50;4.65;;;1.33;;
140;SDS011;65;48.778;9.160;2023-03-26T13:57:40;3.97;;;1.20;;
140;SDS011;65;48.778;9.160;2023-03-26T14:06:46;3.83;;;1.38;;
140;SDS011;65;48.778;9.160;2023-03-26T14:09:43;3.72;;;1.17;;
140;SDS011;65;48.778;9.160;2023-03-26T14:12:46;4.32;;;1.35;;
140;SDS011;65;48.778;9.160;2023-03-26T14:28:18;5.75;;;1.05;;
140;SDS011;65;48.778;9.160;2023-03-26T14:31:35;2.75;;;0.60;;
140;SDS011;65;48.778;9.160;2023-03-26T14:47:25;2.28;;;0.80;;
140;SDS011;65;48.778;9.160;2023-03-26T14:53:33;1.00;;;0.63;;
140;SDS011;65;48.778;9.160;2023-03-26T15:11:27;3.65;;;1.20;;
140;SDS011;65;48.778;9.160;2023-03-26T15:14:39;4.53;;;1.23;;
140;SDS011;65;48.778;9.160;2023-03-26T15:20:48;4.50;;;1.27;;
140;SDS011;65;48.778;9.160;2023-03-26T15:38:48;3.13;;;0.70;;
140;SDS011;65;48.778;9.160;2023-03-26T15:41:53;1.75;;;0.60;;
140;SDS011;65;48.778;9.160;2023-03-26T15:53:41;1.15;;;0.60;;
140;SDS011;65;48.778;9.160;2023-03-26T16:09:15;1.35;;;0.60;;
140;SDS011;65;48.778;9.160;2023-03-26T16:32:44;4.45;;;0.70;;
140;SDS011;65;48.778;9.160;2023-03-26T16:35:51;0.65;;;;;
140;SDS011;65;48.778;9.160;2023-03-26T16:41:56;0.55;;;0.40;;
140;SDS011;65;48.778;9.160;2023-03-26T16:55:15;2.65;;;0.93;;
140;SDS011;65;48.778;9.160;2023-03-26T16:57:46;0.73;;;0.40;;
140;SDS011;65;48.778;9.160;2023-03-26T17:12:56;0.90;;;0.63;;
140;SDS011;65;48.778;9.160;2023-03-26T17:15:47;0.77;;;0.75;;
140;SDS011;65;48.778;9.160;2023-03-26T17:18:42;0.82;;;0.60;;
140;SDS011;65;48.778;9.160;2023-03-26T17:24:51;0.95;;;0.50;;
140;SDS011;65;48.778;9.160;2023-03-26T17:46:36;0.65;;;0.43;;
140;SDS011;65;48.778;9.160;2023-03-26T17:49:26;0.68;;;0.60;;
140;SDS011;65;48.778;9.160;2023-03-26T17:52:29;2.42;;;1.00;;
140;SDS011;65;48.778;9.160;2023-03-26T17:55:29;0.65;;;0.55;;
140;SDS011;65;48.778;9.160;2023-03-26T17:58:22;1.13;;;0.75;;
140;SDS011;65;48.778;9.160;2023-03-26T18:01:16;2.97;;;1.02;;
140;SDS011;65;48.778;9.160;2023-03-26T18:04:24;1.48;;;0.98;;
140;SDS011;65;48.778;9.160;2023-03-26T18:07:26;2.08;;;0.68;;
140;SDS011;65;48.778;9.160;2023-03-26T18:16:54;2.30;;;0.93;;
140;SDS011;65;48.778;9.160;2023-03-26T18:22:37;1.80;;;1.15;;
140;SDS011;65;48.778;9.160;2023-03-26T18:25:24;2.83;;;1.40;;
140;SDS011;65;48.778;9.160;2023-03-26T18:28:14;3.20;;;1.38;;
140;SDS011;65;48.778;9.160;2023-03-26T18:31:08;2.88;;;1.48;;
140;SDS011;65;48.778;9.160;2023-03-26T18:34:03;2.45;;;1.20;;
140;SDS011;65;48.778;9.160;2023-03-26T18:42:57;2.13;;;1.10;;
140;SDS011;65;48.778;9.160;2023-03-26T18:45:43;2.03;;;0.90;;
140;SDS011;65;48.778;9.160;2023-03-26T18:48:32;4.82;;;1.40;;
140;SDS011;65;48.778;9.160;2023-03-26T18:51:18;1.83;;;1.20;;
140;SDS011;65;48.778;9.160;2023-03-26T18:54:08;2.40;;;1.20;;
140;SDS011;65;48.778;9.160;2023-03-26T18:56:57;3.38;;;1.27;;
140;SDS011;65;48.778;9.160;2023-03-26T18:59:54;3.20;;;1.13;;
140;SDS011;65;48.778;9.160;2023-03-26T19:02:56;2.45;;;1.08;;
140;SDS011;65;48.778;9.160;2023-03-26T19:05:53;2.67;;;1.20;;
140;SDS011;65;48.778;9.160;2023-03-26T19:08:41;2.05;;;1.00;;
140;SDS011;65;48.778;9.160;2023-03-26T19:11:29;1.58;;;0.80;;
140;SDS011;65;48.778;9.160;2023-03-26T19:14:17;3.13;;;1.35;;
140;SDS011;65;48.778;9.160;2023-03-26T19:17:04;2.70;;;1.05;;
140;SDS011;65;48.778;9.160;2023-03-26T19:19:51;2.58;;;1.10;;
140;SDS011;65;48.778;9.160;2023-03-26T19:22:39;2.97;;;1.05;;
140;SDS011;65;48.778;9.160;2023-03-26T19:25:37;4.90;;;0.90;;
140;SDS011;65;48.778;9.160;2023-03-26T19:28:41;1.88;;;0.85;;
140;SDS011;65;48.778;9.160;2023-03-26T19:31:37;1.00;;;0.80;;
140;SDS011;65;48.778;9.160;2023-03-26T19:34:26;2.88;;;1.05;;
140;SDS011;65;48.778;9.160;2023-03-26T19:37:47;2.97;;;1.15;;
140;SDS011;65;48.778;9.160;2023-03-26T19:40:34;2.25;;;0.73;;
140;SDS011;65;48.778;9.160;2023-03-26T19:43:21;2.05;;;0.80;;
140;SDS011;65;48.778;9.160;2023-03-26T19:46:11;4.10;;;1.13;;
140;SDS011;65;48.778;9.160;2023-03-26T19:48:59;2.65;;;0.80;;
140;SDS011;65;48.778;9.160;2023-03-26T19:51:46;1.48;;;0.80;;
140;SDS011;65;48.778;9.160;2023-03-26T19:54:53;1.33;;;0.60;;
140;SDS011;65;48.778;9.160;2023-03-26T19:57:49;0.68;;;0.57;;
140;SDS011;65;48.778;9.160;2023-03-26T20:00:36;1.27;;;0.60;;
140;SDS011;65;48.778;9.160;2023-03-26T20:03:29;2.17;;;0.80;;
140;SDS011;65;48.778;9.160;2023-03-26T20:06:22;1.70;;;0.77;;
140;SDS011;65;48.778;9.160;2023-03-26T20:09:13;2.25;;;0.82;;
140;SDS011;65;48.778;9.160;2023-03-26T20:12:00;2.15;;;1.10;;
140;SDS011;65;48.778;9.160;2023-03-26T20:14:46;1.75;;;0.98;;
140;SDS011;65;48.778;9.160;2023-03-26T20:17:33;1.80;;;0.75;;
140;SDS011;65;48.778;9.160;2023-03-26T20:20:19;1.95;;;0.90;;
140;SDS011;65;48.778;9.160;2023-03-26T20:23:12;1.30;;;0.68;;
140;SDS011;65;48.778;9.160;2023-03-26T20:26:01;1.42;;;0.70;;
140;SDS011;65;48.778;9.160;2023-03-26T20:28:47;3.03;;;0.65;;
140;SDS011;65;48.778;9.160;2023-03-26T20:31:33;1.73;;;0.85;;
140;SDS011;65;48.778;9.160;2023-03-26T20:34:20;1.23;;;0.70;;
140;SDS011;65;48.778;9.160;2023-03-26T20:37:07;4.28;;;1.50;;
140;SDS011;65;48.778;9.160;2023-03-26T20:39:54;2.72;;;0.90;;
140;SDS011;65;48.778;9.160;2023-03-26T20:48:58;2.55;;;0.70;;
140;SDS011;65;48.778;9.160;2023-03-26T20:51:44;1.90;;;1.13;;
140;SDS011;65;48.778;9.160;2023-03-26T20:54:30;2.58;;;1.23;;
140;SDS011;65;48.778;9.160;2023-03-26T20:57:16;1.92;;;1.10;;
140;SDS011;65;48.778;9.160;2023-03-26T21:00:02;2.25;;;0.88;;
140;SDS011;65;48.778;9.160;2023-03-26T21:02:54;1.58;;;0.77;;
140;SDS011;65;48.778;9.160;2023-03-26T21:05:41;0.65;;;0.65;;
140;SDS011;65;48.778;9.160;2023-03-26T21:08:27;1.65;;;0.50;;
140;SDS011;65;48.778;9.160;2023-03-26T21:11:25;0.63;;;0.45;;
140;SDS011;65;48.778;9.160;2023-03-26T21:14:23;3.03;;;0.45;;
140;SDS011;65;48.778;9.160;2023-03-26T21:17:13;2.90;;;0.85;;
140;SDS011;65;48.778;9.160;2023-03-26T21:20:04;1.75;;;0.52;;
140;SDS011;65;48.778;9.160;2023-03-26T21:23:11;1.42;;;0.82;;
140;SDS011;65;48.778;9.160;2023-03-26T21:28:56;0.85;;;0.80;;
140;SDS011;65;48.778;9.160;2023-03-26T21:31:43;2.83;;;0.98;;
140;SDS011;65;48.778;9.160;2023-03-26T21:34:30;2.90;;;0.90;;
140;SDS011;65;48.778;9.160;2023-03-26T21:37:17;2.65;;;0.82;;
140;SDS011;65;48.778;9.160;2023-03-26T21:40:10;2.47;;;0.85;;
140;SDS011;65;48.778;9.160;2023-03-26T21:43:01;2.50;;;0.90;;
140;SDS011;65;48.778;9.160;2023-03-26T21:45:47;1.83;;;0.95;;
140;SDS011;65;48.778;9.160;2023-03-26T21:48:33;3.08;;;1.10;;
140;SDS011;65;48.778;9.160;2023-03-26T21:51:20;2.40;;;0.95;;
140;SDS011;65;48.778;9.160;2023-03-26T22:00:17;1.88;;;0.90;;
140;SDS011;65;48.778;9.160;2023-03-26T22:03:24;2.85;;;1.10;;
140;SDS011;65;48.778;9.160;2023-03-26T22:06:24;3.10;;;1.05;;
140;SDS011;65;48.778;9.160;2023-03-26T22:09:15;1.38;;;1.05;;
140;SDS011;65;48.778;9.160;2023-03-26T22:12:02;3.83;;;1.27;;
140;SDS011;65;48.778;9.160;2023-03-26T22:14:48;3.05;;;1.25;;
140;SDS011;65;48.778;9.160;2023-03-26T22:17:34;3.80;;;1.40;;
140;SDS011;65;48.778;9.160;2023-03-26T22:20:21;3.45;;;1.10;;
140;SDS011;65;48.778;9.160;2023-03-26T22:23:12;2.95;;;1.40;;
140;SDS011;65;48.778;9.160;2023-03-26T22:25:58;2.47;;;1.20;;
140;SDS011;65;48.778;9.160;2023-03-26T22:28:44;3.63;;;1.30;;
140;SDS011;65;48.778;9.160;2023-03-26T22:31:31;4.47;;;1.20;;
140;SDS011;65;48.778;9.160;2023-03-26T22:34:17;3.65;;;1.58;;
140;SDS011;65;48.778;9.160;2023-03-26T22:37:07;3.92;;;1.17;;
140;SDS011;65;48.778;9.160;2023-03-26T22:39:53;5.53;;;1.38;;
140;SDS011;65;48.778;9.160;2023-03-26T22:42:38;2.03;;;1.17;;
140;SDS011;65;48.778;9.160;2023-03-26T22:45:25;3.80;;;1.35;;
140;SDS011;65;48.778;9.160;2023-03-26T22:48:12;5.47;;;1.60;;
140;SDS011;65;48.778;9.160;2023-03-26T22:53:43;2.78;;;1.25;;
140;SDS011;65;48.778;9.160;2023-03-26T22:56:29;2.58;;;1.13;;
140;SDS011;65;48.778;9.160;2023-03-26T22:59:15;2.95;;;1.17;;
140;SDS011;65;48.778;9.160;2023-03-26T23:02:00;2.22;;;1.20;;
140;SDS011;65;48.778;9.160;2023-03-26T23:04:46;1.77;;;1.15;;
140;SDS011;65;48.778;9.160;2023-03-26T23:07:32;1.73;;;0.98;;
140;SDS011;65;48.778;9.160;2023-03-26T23:10:18;2.00;;;1.20;;
140;SDS011;65;48.778;9.160;2023-03-26T23:13:05;1.67;;;1.10;;
140;SDS011;65;48.778;9.160;2023-03-26T23:15:52;2.03;;;1.00;;
140;SDS011;65;48.778;9.160;2023-03-26T23:18:39;1.75;;;1.13;;
140;SDS011;65;48.778;9.160;2023-03-26T23:21:25;1.45;;;1.17;;
140;SDS011;65;48.778;9.160;2023-03-26T23:24:11;1.00;;;0.90;;
140;SDS011;65;48.778;9.160;2023-03-26T23:26:59;3.85;;;1.33;;
140;SDS011;65;48.778;9.160;2023-03-26T23:29:45;2.67;;;1.02;;
140;SDS011;65;48.778;9.160;2023-03-26T23:32:32;3.00;;;1.48;;
140;SDS011;65;48.778;9.160;2023-03-26T23:35:21;3.38;;;1.40;;
140;SDS011;65;48.778;9.160;2023-03-26T23:38:07;1.73;;;1.13;;
140;SDS011;65;48.778;9.160;2023-03-26T23:40:53;2.20;;;1.10;;
140;SDS011;65;48.778;9.160;2023-03-26T23:43:42;2.40;;;1.40;;
140;SDS011;65;48.778;9.160;2023-03-26T23:46:28;1.40;;;1.30;;
140;SDS011;65;48.778;9.160;2023-03-26T23:49:17;3.67;;;1.48;;
140;SDS011;65;48.778;9.160;2023-03-26T23:52:03;2.05;;;1.40;;
140;SDS011;65;48.778;9.160;2023-03-26T23:54:49;3.35;;;1.58;;
140;SDS011;65;48.778;9.160;2023-03-26T23:57:35;2.38;;;1.50;;
